createdAt,value
2018-12-17T00:02:09.470Z,25.90
2018-12-17T00:04:36.187Z,25.30
2018-12-17T00:07:02.739Z,25.70
2018-12-17T00:09:29.066Z,25.93
2018-12-17T00:11:55.284Z,25.83
2018-12-17T00:14:21.599Z,25.53
2018-12-17T00:16:47.879Z,25.50
2018-12-17T00:19:14.195Z,29.20
2018-12-17T00:21:40.489Z,26.23
2018-12-17T00:24:06.666Z,27.70
2018-12-17T00:26:32.983Z,27.60
2018-12-17T00:28:59.265Z,25.57
2018-12-17T00:31:25.678Z,25.53
2018-12-17T00:33:51.892Z,22.53
2018-12-17T00:36:18.201Z,27.43
2018-12-17T00:38:44.533Z,27.00
2018-12-17T00:41:10.858Z,23.90
2018-12-17T00:43:37.321Z,25.97
2018-12-17T00:46:03.760Z,25.77
2018-12-17T00:48:30.369Z,24.37
2018-12-17T00:50:56.572Z,25.40
2018-12-17T00:53:22.863Z,25.13
2018-12-17T00:55:49.128Z,28.93
2018-12-17T00:58:15.500Z,27.50
2018-12-17T01:00:41.863Z,27.03
2018-12-17T01:03:08.171Z,27.60
2018-12-17T01:05:34.478Z,24.40
2018-12-17T01:08:00.836Z,24.07
2018-12-17T01:10:27.121Z,26.30
2018-12-17T01:12:53.433Z,29.07
2018-12-17T01:15:19.700Z,25.97
2018-12-17T01:17:46.029Z,28.13
2018-12-17T01:20:12.494Z,28.20
2018-12-17T01:22:38.800Z,28.03
2018-12-17T01:25:05.329Z,30.70
2018-12-17T01:27:31.636Z,25.27
2018-12-17T01:29:58.019Z,27.33
2018-12-17T01:32:24.290Z,27.37
2018-12-17T01:34:50.608Z,28.53
2018-12-17T01:37:16.886Z,28.63
2018-12-17T01:39:43.853Z,27.27
2018-12-17T01:42:10.039Z,28.33
2018-12-17T01:44:36.334Z,26.27
2018-12-17T01:47:02.839Z,30.33
2018-12-17T01:49:29.159Z,28.00
2018-12-17T01:51:55.418Z,29.27
2018-12-17T01:54:21.705Z,30.50
2018-12-17T01:56:47.990Z,29.30
2018-12-17T01:59:14.188Z,25.43
2018-12-17T02:01:40.486Z,28.10
2018-12-17T02:04:06.784Z,31.87
2018-12-17T02:06:32.972Z,26.50
2018-12-17T02:08:59.260Z,25.17
2018-12-17T02:11:25.645Z,29.40
2018-12-17T02:13:51.964Z,29.90
2018-12-17T02:16:18.282Z,29.63
2018-12-17T02:18:44.563Z,29.47
2018-12-17T02:21:10.883Z,28.83
2018-12-17T02:23:37.253Z,28.83
2018-12-17T02:26:03.793Z,27.57
2018-12-17T02:28:35.943Z,27.63
2018-12-17T02:30:58.417Z,30.27
2018-12-17T02:33:24.709Z,29.70
2018-12-17T02:35:50.988Z,31.43
2018-12-17T02:38:17.205Z,29.50
2018-12-17T02:40:43.476Z,31.77
2018-12-17T02:43:09.750Z,34.90
2018-12-17T02:45:36.058Z,34.20
2018-12-17T02:48:02.333Z,30.43
2018-12-17T02:50:28.644Z,30.50
2018-12-17T02:52:54.926Z,29.87
2018-12-17T02:55:21.217Z,31.80
2018-12-17T02:57:47.494Z,30.33
2018-12-17T03:00:13.906Z,30.20
2018-12-17T03:02:40.187Z,30.23
2018-12-17T03:05:06.863Z,31.43
2018-12-17T03:07:33.167Z,30.33
2018-12-17T03:09:59.486Z,32.83
2018-12-17T03:12:25.768Z,29.80
2018-12-17T03:14:52.048Z,32.93
2018-12-17T03:17:18.409Z,32.60
2018-12-17T03:19:44.688Z,30.50
2018-12-17T03:22:11.021Z,34.33
2018-12-17T03:24:37.290Z,33.83
2018-12-17T03:27:03.836Z,31.30
2018-12-17T03:29:30.179Z,30.83
2018-12-17T03:31:56.367Z,29.30
2018-12-17T03:34:22.670Z,33.87
2018-12-17T03:36:49.004Z,32.10
2018-12-17T03:39:15.265Z,34.83
2018-12-17T03:41:41.526Z,32.33
2018-12-17T03:44:07.825Z,34.73
2018-12-17T03:46:34.218Z,37.50
2018-12-17T03:49:00.500Z,34.40
2018-12-17T03:51:26.758Z,32.93
2018-12-17T03:53:53.082Z,32.17
2018-12-17T03:56:19.362Z,33.33
2018-12-17T03:58:45.615Z,34.30
2018-12-17T04:01:11.967Z,33.20
2018-12-17T04:03:38.264Z,33.17
2018-12-17T04:06:04.533Z,39.60
2018-12-17T04:08:30.943Z,36.87
2018-12-17T04:10:57.268Z,31.23
2018-12-17T04:13:23.551Z,38.20
2018-12-17T04:15:49.874Z,38.20
2018-12-17T04:18:16.156Z,33.73
2018-12-17T04:20:42.465Z,39.37
2018-12-17T04:23:08.790Z,38.60
2018-12-17T04:25:35.251Z,33.73
2018-12-17T04:28:01.592Z,35.70
2018-12-17T04:30:27.861Z,37.80
2018-12-17T04:32:54.227Z,37.20
2018-12-17T04:35:20.546Z,34.73
2018-12-17T04:37:46.752Z,36.13
2018-12-17T04:40:13.089Z,37.43
2018-12-17T04:42:39.396Z,34.90
2018-12-17T04:45:05.782Z,39.87
2018-12-17T04:47:32.148Z,36.80
2018-12-17T04:49:58.436Z,37.00
2018-12-17T04:52:24.795Z,36.30
2018-12-17T04:54:51.119Z,40.47
2018-12-17T04:57:17.447Z,37.60
2018-12-17T04:59:43.755Z,38.43
2018-12-17T05:02:10.067Z,37.93
2018-12-17T05:04:36.425Z,38.20
2018-12-17T05:07:02.925Z,39.23
2018-12-17T05:09:29.241Z,37.50
2018-12-17T05:11:55.510Z,36.87
2018-12-17T05:14:21.900Z,38.23
2018-12-17T05:16:48.234Z,37.73
2018-12-17T05:19:14.498Z,40.70
2018-12-17T05:21:40.891Z,40.57
2018-12-17T05:24:07.222Z,34.97
2018-12-17T05:26:33.508Z,46.00
2018-12-17T05:28:59.840Z,41.33
2018-12-17T05:31:26.155Z,39.07
2018-12-17T05:33:52.483Z,42.10
2018-12-17T05:36:18.763Z,40.80
2018-12-17T05:38:45.086Z,40.07
2018-12-17T05:41:11.392Z,42.00
2018-12-17T05:43:38.578Z,39.90
2018-12-17T05:46:05.118Z,38.50
2018-12-17T05:48:31.338Z,40.50
2018-12-17T05:50:57.616Z,39.53
2018-12-17T05:53:23.928Z,40.00
2018-12-17T05:55:50.195Z,44.50
2018-12-17T05:58:16.438Z,41.87
2018-12-17T06:00:42.719Z,40.20
2018-12-17T06:03:09.091Z,43.67
2018-12-17T06:05:35.370Z,39.00
2018-12-17T06:08:03.645Z,43.67
2018-12-17T06:10:29.926Z,43.80
2018-12-17T06:12:56.367Z,47.37
2018-12-17T06:15:22.638Z,42.27
2018-12-17T06:17:49.914Z,42.90
2018-12-17T06:20:17.991Z,40.33
2018-12-17T06:22:44.299Z,42.77
2018-12-17T06:25:10.773Z,45.20
2018-12-17T06:27:38.585Z,43.13
2018-12-17T06:30:05.220Z,41.93
2018-12-17T06:32:31.433Z,46.27
2018-12-17T06:34:57.752Z,44.37
2018-12-17T06:37:23.966Z,46.30
2018-12-17T06:39:50.234Z,50.67
2018-12-17T06:42:16.525Z,45.53
2018-12-17T06:44:42.807Z,41.30
2018-12-17T06:47:09.137Z,51.70
2018-12-17T06:49:35.466Z,45.53
2018-12-17T06:52:02.119Z,45.40
2018-12-17T06:54:28.641Z,44.10
2018-12-17T06:56:54.963Z,48.43
2018-12-17T06:59:21.332Z,46.80
2018-12-17T07:01:48.147Z,47.50
2018-12-17T07:04:14.501Z,46.83
2018-12-17T07:06:40.779Z,46.67
2018-12-17T07:09:07.058Z,45.53
2018-12-17T07:11:33.335Z,45.23
2018-12-17T07:14:00.207Z,46.30
2018-12-17T07:16:26.579Z,46.07
2018-12-17T07:18:52.892Z,54.23
2018-12-17T07:21:19.202Z,44.93
2018-12-17T07:23:45.531Z,54.27
2018-12-17T07:26:11.862Z,49.20
2018-12-17T07:28:38.167Z,50.60
2018-12-17T07:31:04.497Z,52.57
2018-12-17T07:33:30.795Z,49.97
2018-12-17T07:35:57.104Z,52.53
2018-12-17T07:38:23.493Z,49.57
2018-12-17T07:40:49.818Z,50.20
2018-12-17T07:43:16.165Z,51.40
2018-12-17T07:45:42.427Z,52.77
2018-12-17T07:48:08.795Z,47.57
2018-12-17T07:50:35.156Z,49.10
2018-12-17T07:53:01.470Z,53.37
2018-12-17T07:55:27.772Z,50.90
2018-12-17T07:57:54.042Z,51.80
2018-12-17T08:00:20.362Z,51.60
2018-12-17T08:02:46.589Z,51.80
2018-12-17T08:05:12.765Z,51.10
2018-12-17T08:07:39.216Z,55.90
2018-12-17T08:10:05.764Z,54.27
2018-12-17T08:12:32.042Z,56.23
2018-12-17T08:14:58.272Z,54.07
2018-12-17T08:17:24.627Z,54.57
2018-12-17T08:19:51.034Z,57.40
2018-12-17T08:22:17.469Z,57.47
2018-12-17T08:24:43.788Z,58.30
2018-12-17T08:27:10.047Z,59.67
2018-12-17T08:29:36.379Z,59.67
2018-12-17T08:32:02.769Z,54.20
2018-12-17T08:34:29.090Z,60.23
2018-12-17T08:36:55.421Z,60.43
2018-12-17T08:39:21.750Z,57.53
2018-12-17T08:41:48.016Z,61.40
2018-12-17T08:44:14.342Z,59.90
2018-12-17T08:46:40.612Z,63.70
2018-12-17T08:49:06.942Z,63.17
2018-12-17T08:51:33.295Z,60.70
2018-12-17T08:53:59.662Z,61.07
2018-12-17T08:56:25.946Z,65.60
2018-12-17T08:58:52.245Z,62.17
2018-12-17T09:01:18.579Z,63.60
2018-12-17T09:03:44.989Z,64.13
2018-12-17T09:06:11.320Z,56.63
2018-12-17T09:08:37.654Z,57.60
2018-12-17T09:11:04.030Z,68.70
2018-12-17T09:13:30.364Z,55.73
2018-12-17T09:15:56.586Z,59.00
2018-12-17T09:18:22.915Z,65.77
2018-12-17T09:20:49.227Z,63.77
2018-12-17T09:23:15.603Z,68.03
2018-12-17T09:25:41.815Z,65.43
2018-12-17T09:28:08.200Z,69.23
2018-12-17T09:30:41.145Z,62.53
2018-12-17T09:33:03.054Z,64.07
2018-12-17T09:35:29.487Z,63.53
2018-12-17T09:37:55.672Z,62.63
2018-12-17T09:40:22.027Z,63.03
2018-12-17T09:42:48.503Z,63.53
2018-12-17T09:45:14.733Z,63.17
2018-12-17T09:47:40.959Z,60.93
2018-12-17T09:50:07.473Z,61.97
2018-12-17T09:52:33.778Z,59.90
2018-12-17T09:55:00.104Z,63.20
2018-12-17T09:57:26.360Z,62.13
2018-12-17T09:59:52.794Z,57.63
2018-12-17T10:02:19.079Z,63.37
2018-12-17T10:04:45.381Z,66.80
2018-12-17T10:07:11.705Z,64.10
2018-12-17T10:09:37.985Z,59.50
2018-12-17T10:12:04.333Z,70.67
2018-12-17T10:14:30.711Z,70.70
2018-12-17T10:16:56.893Z,62.57
2018-12-17T10:19:23.205Z,62.70
2018-12-17T10:21:49.543Z,60.90
2018-12-17T10:24:16.284Z,70.47
2018-12-17T10:26:42.553Z,65.67
2018-12-17T10:29:08.883Z,59.07
2018-12-17T10:31:35.150Z,61.03
2018-12-17T10:34:01.462Z,59.13
2018-12-17T10:36:27.727Z,58.10
2018-12-17T10:38:54.103Z,55.70
2018-12-17T10:41:20.388Z,61.33
2018-12-17T10:43:46.662Z,59.63
2018-12-17T10:46:13.226Z,59.27
2018-12-17T10:48:39.511Z,60.27
2018-12-17T10:51:05.838Z,60.60
2018-12-17T10:53:32.143Z,61.80
2018-12-17T10:55:58.372Z,60.00
2018-12-17T10:58:24.779Z,64.70
2018-12-17T11:00:57.464Z,56.77
2018-12-17T11:03:26.484Z,60.40
2018-12-17T11:05:54.121Z,65.83
2018-12-17T11:08:20.393Z,67.60
2018-12-17T11:10:46.695Z,66.50
2018-12-17T11:13:12.920Z,59.03
2018-12-17T11:15:39.260Z,67.60
2018-12-17T11:18:05.547Z,60.80
2018-12-17T11:20:31.995Z,60.50
2018-12-17T11:22:58.272Z,59.17
2018-12-17T11:25:24.587Z,62.97
2018-12-17T11:27:50.766Z,62.87
2018-12-17T11:30:16.983Z,67.63
2018-12-17T11:32:43.164Z,62.27
2018-12-17T11:35:09.388Z,66.07
2018-12-17T11:37:35.700Z,60.63
2018-12-17T11:40:02.297Z,62.60
2018-12-17T11:42:28.616Z,60.97
2018-12-17T11:44:54.897Z,61.20
2018-12-17T11:47:21.261Z,67.10
2018-12-17T11:49:47.579Z,59.73
2018-12-17T11:52:13.907Z,61.87
2018-12-17T11:54:40.187Z,69.33
2018-12-17T11:57:17.528Z,61.17
2018-12-17T11:59:43.838Z,61.03
2018-12-17T12:02:10.256Z,68.47
2018-12-17T12:04:36.521Z,62.80
2018-12-17T12:07:02.917Z,64.37
2018-12-17T12:09:31.211Z,67.80
2018-12-17T12:11:57.518Z,68.83
2018-12-17T12:14:23.835Z,64.10
2018-12-17T12:16:50.014Z,69.60
2018-12-17T12:19:16.346Z,72.70
2018-12-17T12:21:42.623Z,72.83
2018-12-17T12:24:08.937Z,71.33
2018-12-17T12:26:35.406Z,71.47
2018-12-17T12:29:02.739Z,74.20
2018-12-17T12:31:28.905Z,78.40
2018-12-17T12:33:55.225Z,75.17
2018-12-17T12:36:21.481Z,81.17
2018-12-17T12:38:47.895Z,79.70
2018-12-17T12:41:14.170Z,80.07
2018-12-17T12:43:40.478Z,88.10
2018-12-17T12:46:07.294Z,85.60
2018-12-17T12:48:33.782Z,77.47
2018-12-17T12:51:00.078Z,85.67
2018-12-17T12:53:26.307Z,91.57
2018-12-17T12:55:52.575Z,81.27
2018-12-17T12:58:18.789Z,83.13
2018-12-17T13:00:45.076Z,86.37
2018-12-17T13:03:11.352Z,74.90
2018-12-17T13:05:37.783Z,75.13
2018-12-17T13:08:04.187Z,76.93
2018-12-17T13:10:30.405Z,78.20
2018-12-17T13:12:56.575Z,79.60
2018-12-17T13:15:22.891Z,79.70
2018-12-17T13:17:49.154Z,77.97
2018-12-17T13:20:15.575Z,79.63
2018-12-17T13:22:41.761Z,88.90
2018-12-17T13:25:10.214Z,82.10
2018-12-17T13:27:36.500Z,94.53
2018-12-17T13:30:04.645Z,83.17
2018-12-17T13:32:30.824Z,85.87
2018-12-17T13:34:57.141Z,86.40
2018-12-17T13:37:23.330Z,80.43
2018-12-17T13:39:49.534Z,93.40
2018-12-17T13:42:15.966Z,87.10
2018-12-17T13:44:42.298Z,84.90
2018-12-17T13:47:08.715Z,93.27
2018-12-17T13:49:35.012Z,79.57
2018-12-17T13:52:07.560Z,76.97
2018-12-17T13:54:33.872Z,81.07
2018-12-17T13:57:00.256Z,84.13
2018-12-17T13:59:26.681Z,87.03
2018-12-17T14:01:52.962Z,81.60
2018-12-17T14:04:19.281Z,91.60
2018-12-17T14:06:45.777Z,85.57
2018-12-17T14:09:12.094Z,88.93
2018-12-17T14:11:38.374Z,96.93
2018-12-17T14:14:04.790Z,89.03
2018-12-17T14:16:37.090Z,93.87
2018-12-17T14:19:09.461Z,97.17
2018-12-17T14:24:36.297Z,89.70
2018-12-17T14:27:02.743Z,97.00
2018-12-17T14:29:29.015Z,94.97
2018-12-17T14:31:55.342Z,87.33
2018-12-17T14:34:21.734Z,98.10
2018-12-17T14:36:48.022Z,91.17
2018-12-17T14:39:14.467Z,83.97
2018-12-17T14:41:40.751Z,97.77
2018-12-17T14:47:04.832Z,81.20
2018-12-17T14:49:31.142Z,85.63
2018-12-17T14:51:57.429Z,95.10
2018-12-17T14:54:23.791Z,92.73
2018-12-17T14:56:50.190Z,86.73
2018-12-17T14:59:16.463Z,86.23
2018-12-17T15:01:42.784Z,93.50
2018-12-17T15:04:09.058Z,92.03
2018-12-17T15:06:35.386Z,82.10
2018-12-17T15:09:01.698Z,94.70
2018-12-17T15:11:27.929Z,81.87
2018-12-17T15:13:54.227Z,84.23
2018-12-17T15:16:20.526Z,97.53
2018-12-17T15:18:46.889Z,95.13
2018-12-17T15:21:13.206Z,98.93
2018-12-17T15:23:39.566Z,88.67
2018-12-17T15:26:05.862Z,92.47
2018-12-17T15:28:32.179Z,98.40
2018-12-17T15:30:58.622Z,93.40
2018-12-17T15:33:24.894Z,93.20
2018-12-17T15:35:51.201Z,96.47
2018-12-17T15:38:17.682Z,106.00
2018-12-17T15:40:44.041Z,96.03
2018-12-17T15:43:10.372Z,96.83
2018-12-17T15:45:36.598Z,109.57
2018-12-17T15:48:03.048Z,105.77
2018-12-17T15:50:29.360Z,101.87
2018-12-17T15:52:55.770Z,101.03
2018-12-17T15:55:22.052Z,107.53
2018-12-17T15:57:48.371Z,108.50
2018-12-17T16:00:14.636Z,100.30
2018-12-17T16:02:40.970Z,102.63
2018-12-17T16:05:07.370Z,106.53
2018-12-17T16:07:33.653Z,105.50
2018-12-17T16:09:59.982Z,111.83
2018-12-17T16:12:26.311Z,106.27
2018-12-17T16:14:52.595Z,107.07
2018-12-17T16:17:18.926Z,105.97
2018-12-17T16:19:45.253Z,96.03
2018-12-17T16:22:11.605Z,98.53
2018-12-17T16:24:37.867Z,103.00
2018-12-17T16:27:04.465Z,99.30
2018-12-17T16:29:30.738Z,95.23
2018-12-17T16:31:57.556Z,103.23
2018-12-17T16:34:24.335Z,97.87
2018-12-17T16:36:51.138Z,99.43
2018-12-17T16:39:17.453Z,104.47
2018-12-17T16:41:43.767Z,90.20
2018-12-17T16:44:10.056Z,88.70
2018-12-17T16:46:36.275Z,88.87
2018-12-17T16:49:02.860Z,92.27
2018-12-17T16:51:29.197Z,91.30
2018-12-17T16:53:55.476Z,89.40
2018-12-17T16:56:21.788Z,91.33
2018-12-17T16:58:48.269Z,84.20
2018-12-17T17:01:14.586Z,89.10
2018-12-17T17:03:40.895Z,88.00
2018-12-17T17:06:07.283Z,81.77
2018-12-17T17:08:33.626Z,85.63
2018-12-17T17:10:59.963Z,89.63
2018-12-17T17:13:26.289Z,90.80
2018-12-17T17:15:52.638Z,77.13
2018-12-17T17:18:18.917Z,87.13
2018-12-17T17:20:45.232Z,85.73
2018-12-17T17:23:11.519Z,80.03
2018-12-17T17:25:37.896Z,83.43
2018-12-17T17:28:04.250Z,87.63
2018-12-17T17:30:30.586Z,84.03
2018-12-17T17:32:56.757Z,78.13
2018-12-17T17:35:23.039Z,82.40
2018-12-17T17:37:49.448Z,85.53
2018-12-17T17:40:15.857Z,78.90
2018-12-17T17:42:42.289Z,84.80
2018-12-17T17:45:08.680Z,83.10
2018-12-17T17:47:34.999Z,83.37
2018-12-17T17:50:01.405Z,70.57
2018-12-17T17:52:27.633Z,76.13
2018-12-17T17:54:53.891Z,79.47
2018-12-17T17:57:20.246Z,85.50
2018-12-17T17:59:46.490Z,74.27
2018-12-17T18:02:18.755Z,86.57
2018-12-17T18:04:41.154Z,75.73
2018-12-17T18:07:07.486Z,74.23
2018-12-17T18:09:33.793Z,85.13
2018-12-17T18:12:00.589Z,77.93
2018-12-17T18:14:26.928Z,77.33
2018-12-17T18:16:53.243Z,79.70
2018-12-17T18:19:19.878Z,76.40
2018-12-17T18:21:46.161Z,88.63
2018-12-17T18:24:12.491Z,84.13
2018-12-17T18:26:38.770Z,85.40
2018-12-17T18:29:05.505Z,82.87
2018-12-17T18:31:31.805Z,84.90
2018-12-17T18:33:58.082Z,75.40
2018-12-17T18:36:24.437Z,78.23
2018-12-17T18:38:50.830Z,80.40
2018-12-17T18:41:17.142Z,81.53
2018-12-17T18:43:43.419Z,79.30
2018-12-17T18:46:09.753Z,80.27
2018-12-17T18:48:36.071Z,80.67
2018-12-17T18:51:02.369Z,74.93
2018-12-17T18:53:28.694Z,76.47
2018-12-17T18:55:54.976Z,81.37
2018-12-17T18:58:21.308Z,84.07
2018-12-17T19:00:47.602Z,92.00
2018-12-17T19:03:13.830Z,84.50
2018-12-17T19:05:40.151Z,82.87
2018-12-17T19:08:06.331Z,78.47
2018-12-17T19:13:29.453Z,84.07
2018-12-17T19:15:55.721Z,76.63
2018-12-17T19:18:22.065Z,89.90
2018-12-17T19:20:48.355Z,78.80
2018-12-17T19:23:14.712Z,82.80
2018-12-17T19:25:41.047Z,85.90
2018-12-17T19:28:07.362Z,80.80
2018-12-17T19:30:33.627Z,83.33
2018-12-17T19:32:59.957Z,81.87
2018-12-17T19:35:26.349Z,79.23
2018-12-17T19:37:52.783Z,80.53
2018-12-17T19:40:19.134Z,82.97
2018-12-17T19:42:45.450Z,78.47
2018-12-17T19:45:11.882Z,83.17
2018-12-17T19:47:38.179Z,85.67
2018-12-17T19:50:05.683Z,80.57
2018-12-17T19:52:32.014Z,79.93
2018-12-17T19:54:58.341Z,80.07
2018-12-17T19:57:24.627Z,85.23
2018-12-17T19:59:50.845Z,85.27
2018-12-17T20:02:17.134Z,81.00
2018-12-17T20:04:43.413Z,74.00
2018-12-17T20:07:09.741Z,81.20
2018-12-17T20:09:36.033Z,81.23
2018-12-17T20:12:02.463Z,84.27
2018-12-17T20:14:28.837Z,77.90
2018-12-17T20:16:55.167Z,79.80
2018-12-17T20:19:21.502Z,71.93
2018-12-17T20:21:47.739Z,79.27
2018-12-17T20:24:14.032Z,74.00
2018-12-17T20:26:40.239Z,76.30
2018-12-17T20:29:06.472Z,71.30
2018-12-17T20:31:32.877Z,73.20
2018-12-17T20:33:59.200Z,71.20
2018-12-17T20:36:25.479Z,75.20
2018-12-17T20:38:51.886Z,72.40
2018-12-17T20:41:18.228Z,67.97
2018-12-17T20:43:45.185Z,70.17
2018-12-17T20:46:11.646Z,72.10
2018-12-17T20:48:37.969Z,68.03
2018-12-17T20:51:04.265Z,67.00
2018-12-17T20:53:30.587Z,61.10
2018-12-17T20:55:56.770Z,70.23
2018-12-17T20:58:23.023Z,70.90
2018-12-17T21:00:49.426Z,72.80
2018-12-17T21:03:15.759Z,68.43
2018-12-17T21:05:42.036Z,68.13
2018-12-17T21:08:08.370Z,66.70
2018-12-17T21:10:34.774Z,67.73
2018-12-17T21:13:04.164Z,63.27
2018-12-17T21:15:30.418Z,65.90
2018-12-17T21:17:56.711Z,66.80
2018-12-17T21:20:22.941Z,64.97
2018-12-17T21:22:49.445Z,66.10
2018-12-17T21:25:16.066Z,73.50
2018-12-17T21:27:42.932Z,71.33
2018-12-17T21:30:09.421Z,69.43
2018-12-17T21:32:35.739Z,67.63
2018-12-17T21:35:02.146Z,66.23
2018-12-17T21:37:28.439Z,67.27
2018-12-17T21:39:54.869Z,67.90
2018-12-17T21:42:21.289Z,71.90
2018-12-17T21:44:47.554Z,67.47
2018-12-17T21:47:14.065Z,73.10
2018-12-17T21:49:40.458Z,63.73
2018-12-17T21:52:06.634Z,64.50
2018-12-17T21:54:32.870Z,68.90
2018-12-17T21:56:59.288Z,55.47
2018-12-17T21:59:25.631Z,59.30
2018-12-17T22:01:52.026Z,67.73
2018-12-17T22:04:19.771Z,64.27
2018-12-17T22:06:46.366Z,66.60
2018-12-17T22:09:12.638Z,61.07
2018-12-17T22:11:38.959Z,57.93
2018-12-17T22:14:05.302Z,60.97
2018-12-17T22:16:31.612Z,65.87
2018-12-17T22:18:57.844Z,61.40
2018-12-17T22:21:24.178Z,64.87
2018-12-17T22:23:50.454Z,58.50
2018-12-17T22:26:16.629Z,61.30
2018-12-17T22:28:42.834Z,57.37
2018-12-17T22:31:09.106Z,64.47
2018-12-17T22:33:35.418Z,59.33
2018-12-17T22:36:01.895Z,59.70
2018-12-17T22:38:28.181Z,62.27
2018-12-17T22:40:54.523Z,65.97
2018-12-17T22:43:20.821Z,60.63
2018-12-17T22:45:47.211Z,62.57
2018-12-17T22:48:13.502Z,64.90
2018-12-17T22:50:39.782Z,59.93
2018-12-17T22:53:05.993Z,60.60
2018-12-17T22:55:32.370Z,59.53
2018-12-17T22:57:58.674Z,59.23
2018-12-17T23:00:25.085Z,66.77
2018-12-17T23:02:51.414Z,59.23
2018-12-17T23:05:17.686Z,59.37
2018-12-17T23:07:43.981Z,62.50
2018-12-17T23:10:23.061Z,65.57
2018-12-17T23:13:01.998Z,65.20
2018-12-17T23:15:40.643Z,63.87
2018-12-17T23:18:06.702Z,60.63
2018-12-17T23:20:33.083Z,61.13
2018-12-17T23:22:59.581Z,58.03
2018-12-17T23:25:25.862Z,56.40
2018-12-17T23:27:52.170Z,62.10
2018-12-17T23:30:20.397Z,60.37
2018-12-17T23:32:46.700Z,59.03
2018-12-17T23:35:13.107Z,53.50
2018-12-17T23:37:39.947Z,55.10
2018-12-17T23:40:06.461Z,59.23
2018-12-17T23:42:32.783Z,62.23
2018-12-17T23:44:59.079Z,65.47
2018-12-17T23:47:25.406Z,63.47
2018-12-17T23:49:51.686Z,60.47
2018-12-17T23:52:17.883Z,60.23
2018-12-17T23:54:44.166Z,58.90
2018-12-17T23:57:10.582Z,61.20
2018-12-17T23:59:36.746Z,64.13
